Time;durP1;ratioP1;P1;durP2;ratioP2;P2;SDS_P1;SDS_P2;PMS_P1;PMS_P2;Temp;Humidity;BMP_temperature;BMP_pressure;BME280_temperature;BME280_humidity;BME280_pressure;Samples;Min_cycle;Max_cycle;Signal;HPM_P1;HPM_P2
2024/01/17 00:00:04;;;;;;;10.10;5.63;;;15.90;68.50;;;;;;348206;28;1051;-55
2024/01/17 00:00:15;;;;;;;8.50;5.55;;;15.80;68.50;;;;;;348307;28;918;-55
2024/01/17 00:00:26;;;;;;;8.25;5.38;;;15.90;68.50;;;;;;348293;28;1193;-54
2024/01/17 00:00:37;;;;;;;7.93;5.53;;;15.90;68.40;;;;;;348238;28;1161;-56
2024/01/17 00:00:49;;;;;;;7.82;5.68;;;15.90;68.40;;;;;;348306;28;1570;-55
2024/01/17 00:00:59;;;;;;;9.30;5.57;;;15.90;68.40;;;;;;348356;28;971;-55
2024/01/17 00:01:10;;;;;;;9.63;5.50;;;15.90;68.40;;;;;;348301;28;1095;-55
2024/01/17 00:01:21;;;;;;;10.05;5.70;;;15.90;68.40;;;;;;348250;28;1481;-54
2024/01/17 00:01:32;;;;;;;9.43;5.60;;;15.90;68.40;;;;;;348381;28;908;-55
2024/01/17 00:01:43;;;;;;;9.45;5.32;;;15.80;68.40;;;;;;348373;28;853;-54
2024/01/17 00:01:54;;;;;;;9.00;5.03;;;15.90;68.40;;;;;;348287;28;1023;-54
2024/01/17 00:02:05;;;;;;;9.85;5.20;;;15.80;68.40;;;;;;348288;28;892;-56
2024/01/17 00:02:15;;;;;;;10.60;5.20;;;15.80;68.40;;;;;;348327;28;960;-55
2024/01/17 00:02:26;;;;;;;11.30;5.38;;;15.80;68.40;;;;;;348295;28;869;-55
2024/01/17 00:02:37;;;;;;;10.02;5.30;;;15.80;68.40;;;;;;348339;28;1102;-55
2024/01/17 00:02:48;;;;;;;8.73;5.28;;;15.80;68.40;;;;;;348159;28;1055;-56
2024/01/17 00:02:59;;;;;;;8.27;5.35;;;15.80;68.40;;;;;;348362;28;1035;-55
2024/01/17 00:03:10;;;;;;;8.18;5.18;;;15.90;68.40;;;;;;348304;28;987;-54
2024/01/17 00:03:21;;;;;;;8.50;5.10;;;15.90;68.40;;;;;;348270;28;1062;-55
2024/01/17 00:03:31;;;;;;;7.70;5.13;;;15.80;68.40;;;;;;348231;28;1058;-54
2024/01/17 00:03:42;;;;;;;8.17;5.20;;;15.90;68.40;;;;;;348368;28;959;-55
2024/01/17 00:03:53;;;;;;;8.98;5.20;;;15.90;68.40;;;;;;348322;28;883;-56
2024/01/17 00:04:04;;;;;;;10.30;5.15;;;15.80;68.40;;;;;;348348;28;1000;-54
2024/01/17 00:04:15;;;;;;;10.43;5.07;;;15.80;68.30;;;;;;348154;28;1861;-55
2024/01/17 00:04:27;;;;;;;8.93;5.35;;;15.90;68.30;;;;;;348290;28;1190;-55
2024/01/17 00:04:38;;;;;;;9.23;5.53;;;15.90;68.30;;;;;;348353;28;1138;-56
2024/01/17 00:04:50;;;;;;;9.48;5.45;;;15.90;68.30;;;;;;348370;28;1030;-56
2024/01/17 00:05:01;;;;;;;8.02;5.03;;;15.80;68.30;;;;;;348260;28;1054;-55
2024/01/17 00:05:12;;;;;;;7.93;5.00;;;15.80;68.30;;;;;;348337;28;1008;-55
2024/01/17 00:05:22;;;;;;;8.55;5.18;;;15.90;68.30;;;;;;348272;28;1694;-54
2024/01/17 00:05:34;;;;;;;9.07;4.95;;;15.80;68.30;;;;;;348365;28;790;-54
2024/01/17 00:05:45;;;;;;;8.90;5.05;;;15.90;68.40;;;;;;348265;28;915;-55
2024/01/17 00:05:55;;;;;;;8.63;5.35;;;15.80;68.40;;;;;;348350;28;821;-54
2024/01/17 00:06:06;;;;;;;8.98;5.40;;;15.80;68.40;;;;;;348309;28;964;-55
2024/01/17 00:06:17;;;;;;;8.05;5.07;;;15.80;68.40;;;;;;348224;28;1000;-54
2024/01/17 00:06:28;;;;;;;8.30;4.97;;;15.80;68.40;;;;;;348342;28;1086;-54
2024/01/17 00:06:39;;;;;;;7.97;5.00;;;15.80;68.40;;;;;;348362;28;848;-54
2024/01/17 00:06:50;;;;;;;8.30;5.15;;;15.90;68.40;;;;;;348198;28;1495;-55
2024/01/17 00:07:01;;;;;;;7.70;5.25;;;15.90;68.40;;;;;;348286;28;1043;-55
2024/01/17 00:07:11;;;;;;;9.48;5.50;;;15.80;68.40;;;;;;348265;28;1099;-55
2024/01/17 00:07:24;;;;;;;10.27;5.60;;;15.80;68.40;;;;;;348146;28;1096;-54
2024/01/17 00:07:35;;;;;;;9.73;5.20;;;15.80;68.40;;;;;;348364;28;1102;-54
2024/01/17 00:07:45;;;;;;;9.03;4.97;;;15.80;68.50;;;;;;348375;28;948;-54
2024/01/17 00:07:56;;;;;;;9.88;5.15;;;15.80;68.50;;;;;;348224;28;1004;-54
2024/01/17 00:08:09;;;;;;;10.52;5.28;;;15.80;68.50;;;;;;348316;28;1031;-55
2024/01/17 00:08:19;;;;;;;10.90;5.50;;;15.90;68.60;;;;;;348300;28;1055;-55
2024/01/17 00:08:30;;;;;;;10.10;5.50;;;15.80;68.50;;;;;;348275;28;972;-54
2024/01/17 00:08:41;;;;;;;9.25;5.40;;;15.80;68.50;;;;;;348276;28;1311;-54
2024/01/17 00:08:52;;;;;;;8.50;5.05;;;15.90;68.50;;;;;;348262;28;984;-54
2024/01/17 00:09:04;;;;;;;8.40;4.95;;;15.90;68.50;;;;;;348241;28;889;-54
2024/01/17 00:09:18;;;;;;;8.80;5.10;;;15.80;68.50;;;;;;348267;28;1142;-53
2024/01/17 00:09:29;;;;;;;8.23;4.95;;;15.90;68.60;;;;;;348314;28;1003;-55
2024/01/17 00:09:40;;;;;;;8.45;5.20;;;15.80;68.50;;;;;;348202;28;1150;-56
2024/01/17 00:09:50;;;;;;;6.80;4.97;;;15.90;68.50;;;;;;348275;28;1055;-54
2024/01/17 00:10:01;;;;;;;7.30;5.10;;;15.80;68.40;;;;;;348306;28;1458;-54
2024/01/17 00:10:13;;;;;;;6.95;4.78;;;15.90;68.40;;;;;;348198;28;1014;-54
2024/01/17 00:10:24;;;;;;;7.60;4.90;;;15.90;68.40;;;;;;348317;28;1476;-53
2024/01/17 00:10:35;;;;;;;7.80;4.88;;;15.80;68.30;;;;;;348340;28;1916;-54
2024/01/17 00:10:46;;;;;;;7.78;4.90;;;15.90;68.30;;;;;;348235;28;1000;-54
2024/01/17 00:10:57;;;;;;;7.67;4.80;;;15.80;68.30;;;;;;348300;28;1822;-55
2024/01/17 00:11:07;;;;;;;6.90;4.75;;;15.90;68.30;;;;;;348282;28;1495;-54
2024/01/17 00:11:18;;;;;;;7.07;4.63;;;15.80;68.40;;;;;;348190;28;1007;-56
2024/01/17 00:11:29;;;;;;;7.10;4.75;;;15.90;68.40;;;;;;348336;28;888;-55
2024/01/17 00:11:40;;;;;;;7.67;5.00;;;15.80;68.40;;;;;;348370;28;813;-54
2024/01/17 00:11:51;;;;;;;9.10;5.07;;;15.90;68.40;;;;;;348221;28;1027;-55
2024/01/17 00:12:04;;;;;;;9.75;5.10;;;15.80;68.40;;;;;;348261;28;1639;-54
2024/01/17 00:12:15;;;;;;;10.18;5.20;;;15.80;68.40;;;;;;348350;28;1054;-55
2024/01/17 00:12:25;;;;;;;10.17;4.97;;;15.80;68.30;;;;;;348214;28;1008;-54
2024/01/17 00:12:36;;;;;;;8.43;4.57;;;15.80;68.30;;;;;;348296;28;971;-54
2024/01/17 00:12:47;;;;;;;7.65;4.43;;;15.80;68.30;;;;;;348294;28;1070;-54
2024/01/17 00:12:58;;;;;;;7.50;4.60;;;15.80;68.30;;;;;;348243;28;910;-54
2024/01/17 00:13:08;;;;;;;7.60;4.73;;;15.80;68.30;;;;;;348311;28;1004;-55
2024/01/17 00:13:19;;;;;;;7.97;4.90;;;15.80;68.30;;;;;;348307;28;1019;-54
2024/01/17 00:13:30;;;;;;;8.45;5.03;;;15.80;68.30;;;;;;348152;28;1478;-53
2024/01/17 00:13:41;;;;;;;9.88;5.15;;;15.90;68.30;;;;;;348314;28;1063;-54
2024/01/17 00:13:51;;;;;;;8.90;4.97;;;15.90;68.30;;;;;;348255;28;1284;-55
2024/01/17 00:14:02;;;;;;;8.53;4.70;;;15.90;68.30;;;;;;348238;28;1009;-54
2024/01/17 00:14:13;;;;;;;8.65;4.78;;;15.90;68.20;;;;;;348342;28;1761;-54
2024/01/17 00:14:24;;;;;;;9.85;4.80;;;15.90;68.20;;;;;;348288;28;1868;-54
2024/01/17 00:14:34;;;;;;;10.40;4.97;;;15.90;68.20;;;;;;348203;28;1039;-55
2024/01/17 00:14:45;;;;;;;9.68;5.00;;;15.90;68.20;;;;;;348313;28;991;-54
2024/01/17 00:14:56;;;;;;;8.03;5.00;;;15.90;68.10;;;;;;348315;28;846;-55
2024/01/17 00:15:07;;;;;;;7.78;5.00;;;15.90;68.20;;;;;;348268;28;1030;-54
2024/01/17 00:15:18;;;;;;;7.65;5.03;;;15.90;68.20;;;;;;348264;28;1122;-55
2024/01/17 00:15:30;;;;;;;7.53;5.00;;;15.80;68.20;;;;;;348311;28;995;-54
2024/01/17 00:15:41;;;;;;;7.03;5.00;;;15.80;68.30;;;;;;348253;28;987;-54
2024/01/17 00:15:51;;;;;;;7.05;4.97;;;15.80;68.30;;;;;;348298;28;930;-54
2024/01/17 00:16:02;;;;;;;7.72;4.95;;;15.80;68.30;;;;;;348298;28;1204;-55
2024/01/17 00:16:21;;;;;;;8.05;5.15;;;15.80;68.40;;;;;;348374;28;912;-55
2024/01/17 00:16:32;;;;;;;7.93;5.13;;;15.90;68.40;;;;;;348256;28;887;-55
2024/01/17 00:16:43;;;;;;;8.60;5.23;;;15.80;68.40;;;;;;348216;28;1047;-55
2024/01/17 00:16:54;;;;;;;8.18;5.20;;;15.80;68.30;;;;;;348295;28;1016;-55
2024/01/17 00:17:05;;;;;;;8.68;5.43;;;15.80;68.40;;;;;;348287;28;972;-54
2024/01/17 00:17:16;;;;;;;8.45;5.32;;;15.80;68.30;;;;;;348244;28;1971;-54
2024/01/17 00:17:27;;;;;;;8.18;5.20;;;15.80;68.40;;;;;;348176;28;2422;-54
2024/01/17 00:17:38;;;;;;;8.05;4.93;;;15.80;68.40;;;;;;348265;28;1196;-54
2024/01/17 00:17:48;;;;;;;8.70;4.80;;;15.80;68.40;;;;;;348279;28;955;-54
2024/01/17 00:17:59;;;;;;;9.05;4.63;;;15.90;68.40;;;;;;348305;28;901;-54
2024/01/17 00:18:10;;;;;;;8.48;4.60;;;15.90;68.30;;;;;;348314;28;1034;-54
2024/01/17 00:18:21;;;;;;;8.82;4.72;;;15.80;68.30;;;;;;348187;28;896;-55
2024/01/17 00:18:32;;;;;;;8.75;5.00;;;15.80;68.30;;;;;;348343;28;1892;-53
2024/01/17 00:18:42;;;;;;;9.13;4.80;;;15.80;68.30;;;;;;348276;28;972;-55
2024/01/17 00:18:57;;;;;;;7.93;4.63;;;15.90;68.30;;;;;;348248;28;1451;-55
2024/01/17 00:19:08;;;;;;;7.25;4.53;;;15.90;68.20;;;;;;348336;28;865;-55
2024/01/17 00:19:18;;;;;;;7.43;4.50;;;15.80;68.20;;;;;;348190;28;1007;-55
2024/01/17 00:19:31;;;;;;;8.03;4.60;;;15.80;68.10;;;;;;348299;28;896;-55
2024/01/17 00:19:41;;;;;;;8.20;4.80;;;15.90;68.10;;;;;;348293;28;1076;-55
2024/01/17 00:19:52;;;;;;;7.97;4.57;;;15.90;68.10;;;;;;348366;28;1765;-55
2024/01/17 00:20:03;;;;;;;8.10;4.40;;;15.90;68.00;;;;;;348329;28;1103;-55
2024/01/17 00:20:15;;;;;;;7.85;4.50;;;15.90;67.90;;;;;;348211;28;1010;-56
2024/01/17 00:20:25;;;;;;;7.20;4.70;;;15.90;67.90;;;;;;348320;28;841;-55
2024/01/17 00:20:36;;;;;;;7.10;4.63;;;15.90;67.90;;;;;;348255;28;1162;-55
2024/01/17 00:20:47;;;;;;;8.55;4.45;;;15.90;67.90;;;;;;348303;28;1350;-55
2024/01/17 00:20:58;;;;;;;9.02;4.40;;;15.90;67.90;;;;;;348306;28;1176;-54
2024/01/17 00:21:09;;;;;;;10.80;4.70;;;15.90;67.90;;;;;;348198;28;1036;-55
2024/01/17 00:21:19;;;;;;;8.88;4.70;;;15.90;67.90;;;;;;348251;28;1232;-55
2024/01/17 00:21:30;;;;;;;8.05;4.80;;;15.90;67.90;;;;;;348308;28;1011;-55
2024/01/17 00:21:41;;;;;;;7.30;4.60;;;15.90;67.90;;;;;;348284;28;1094;-55
2024/01/17 00:21:52;;;;;;;8.50;4.70;;;15.90;67.90;;;;;;348267;28;2047;-55
2024/01/17 00:22:02;;;;;;;9.27;4.82;;;15.90;67.90;;;;;;348183;28;1119;-54
2024/01/17 00:22:16;;;;;;;8.85;4.95;;;15.90;67.80;;;;;;348228;28;1082;-55
2024/01/17 00:22:27;;;;;;;8.23;4.82;;;15.90;67.80;;;;;;348316;28;832;-54
2024/01/17 00:22:38;;;;;;;9.23;4.88;;;15.90;67.70;;;;;;348333;28;879;-55
2024/01/17 00:22:49;;;;;;;12.13;5.15;;;15.90;67.70;;;;;;348327;28;1023;-54
2024/01/17 00:23:00;;;;;;;11.77;4.95;;;15.90;67.70;;;;;;348245;28;1104;-55
2024/01/17 00:23:10;;;;;;;9.98;4.75;;;15.90;67.60;;;;;;348313;28;992;-54
2024/01/17 00:23:21;;;;;;;6.67;4.53;;;15.90;67.60;;;;;;348269;28;996;-55
2024/01/17 00:23:32;;;;;;;7.22;4.50;;;16.00;67.60;;;;;;348284;28;1048;-55
2024/01/17 00:23:43;;;;;;;8.82;4.53;;;15.90;67.60;;;;;;348242;28;1015;-54
2024/01/17 00:23:54;;;;;;;8.70;4.38;;;15.90;67.60;;;;;;348156;28;911;-54
2024/01/17 00:24:04;;;;;;;7.70;4.18;;;16.00;67.50;;;;;;348240;28;988;-54
2024/01/17 00:24:15;;;;;;;6.53;4.18;;;16.00;67.50;;;;;;348311;28;805;-54
2024/01/17 00:24:26;;;;;;;7.17;4.47;;;16.00;67.50;;;;;;348268;28;1035;-54
2024/01/17 00:24:37;;;;;;;8.68;4.90;;;16.00;67.40;;;;;;348261;28;1535;-54
2024/01/17 00:24:49;;;;;;;10.75;5.05;;;16.00;67.40;;;;;;348183;28;1095;-54
2024/01/17 00:25:00;;;;;;;10.85;4.80;;;16.00;67.40;;;;;;348249;28;1111;-54
2024/01/17 00:25:11;;;;;;;10.48;4.75;;;16.00;67.40;;;;;;348269;28;1201;-56
2024/01/17 00:25:22;;;;;;;9.45;4.53;;;16.00;67.30;;;;;;348253;28;1852;-54
2024/01/17 00:25:33;;;;;;;9.73;4.45;;;15.90;67.40;;;;;;348294;28;1126;-55
2024/01/17 00:25:43;;;;;;;8.77;4.50;;;15.90;67.40;;;;;;348176;28;1070;-54
2024/01/17 00:25:54;;;;;;;8.45;4.57;;;16.00;67.40;;;;;;348211;28;1306;-55
2024/01/17 00:26:06;;;;;;;8.02;4.68;;;16.00;67.40;;;;;;348291;28;1103;-55
2024/01/17 00:26:17;;;;;;;8.45;4.43;;;16.00;67.30;;;;;;348259;28;1099;-55
2024/01/17 00:26:28;;;;;;;8.77;4.60;;;15.90;67.30;;;;;;348193;28;1502;-55
2024/01/17 00:26:38;;;;;;;8.18;4.60;;;16.00;67.30;;;;;;348230;28;1206;-54
2024/01/17 00:26:49;;;;;;;7.38;4.55;;;16.00;67.30;;;;;;348315;28;964;-54
2024/01/17 00:27:00;;;;;;;6.80;4.03;;;16.00;67.20;;;;;;348261;28;1046;-54
2024/01/17 00:27:13;;;;;;;7.70;3.97;;;16.00;67.00;;;;;;348186;28;908;-54
2024/01/17 00:27:25;;;;;;;7.38;3.90;;;16.00;66.90;;;;;;348310;28;939;-54
2024/01/17 00:27:37;;;;;;;7.97;4.20;;;16.00;66.90;;;;;;348320;28;943;-54
2024/01/17 00:27:49;;;;;;;9.80;4.25;;;16.00;66.90;;;;;;348200;28;1474;-54
2024/01/17 00:27:59;;;;;;;9.84;4.46;;;16.00;66.90;;;;;;348092;28;1183;-53
2024/01/17 00:28:10;;;;;;;10.10;4.60;;;16.00;66.90;;;;;;348274;28;944;-55
2024/01/17 00:28:21;;;;;;;8.88;4.50;;;16.00;67.00;;;;;;348281;28;996;-54
2024/01/17 00:28:32;;;;;;;9.02;4.25;;;16.00;67.00;;;;;;348316;28;853;-54
2024/01/17 00:28:42;;;;;;;7.90;4.10;;;16.00;67.00;;;;;;348209;28;923;-54
2024/01/17 00:28:55;;;;;;;8.17;4.20;;;16.00;67.00;;;;;;348317;28;888;-54
2024/01/17 00:29:06;;;;;;;7.15;4.03;;;16.00;67.00;;;;;;348303;28;1015;-54
2024/01/17 00:29:17;;;;;;;7.82;4.13;;;16.00;67.00;;;;;;348272;28;1047;-54
2024/01/17 00:29:28;;;;;;;8.65;4.07;;;16.00;67.00;;;;;;348190;28;828;-54
2024/01/17 00:29:39;;;;;;;8.98;4.05;;;16.00;67.00;;;;;;348252;28;1217;-54
2024/01/17 00:29:56;;;;;;;9.13;4.20;;;15.90;67.00;;;;;;348269;28;1098;-55
2024/01/17 00:30:08;;;;;;;8.30;4.35;;;16.00;67.00;;;;;;348250;28;1973;-54
2024/01/17 00:30:19;;;;;;;7.05;4.28;;;15.90;67.00;;;;;;348269;28;952;-54
2024/01/17 00:30:30;;;;;;;8.90;4.55;;;15.90;67.00;;;;;;348323;28;903;-55
2024/01/17 00:30:40;;;;;;;9.43;4.30;;;15.90;67.00;;;;;;348270;28;1039;-53
2024/01/17 00:30:51;;;;;;;9.60;4.22;;;16.00;67.00;;;;;;348231;28;1150;-54
2024/01/17 00:31:02;;;;;;;8.20;3.93;;;16.00;66.90;;;;;;348164;28;1278;-55
2024/01/17 00:31:13;;;;;;;7.10;3.90;;;16.00;67.00;;;;;;348367;28;916;-54
2024/01/17 00:31:24;;;;;;;6.67;4.13;;;16.00;67.00;;;;;;348151;28;1039;-54
2024/01/17 00:31:34;;;;;;;7.20;4.15;;;16.00;67.00;;;;;;348290;28;889;-54
2024/01/17 00:31:45;;;;;;;7.63;4.35;;;16.00;67.00;;;;;;348169;28;1083;-55
2024/01/17 00:31:56;;;;;;;7.95;4.20;;;15.90;67.00;;;;;;348267;28;1404;-54
2024/01/17 00:32:07;;;;;;;7.30;4.22;;;15.90;67.00;;;;;;348204;28;905;-54
2024/01/17 00:32:18;;;;;;;6.97;4.10;;;15.90;67.00;;;;;;348339;28;840;-54
2024/01/17 00:32:31;;;;;;;5.60;3.97;;;16.00;67.10;;;;;;348251;28;1066;-54
2024/01/17 00:32:42;;;;;;;6.18;3.70;;;16.00;67.10;;;;;;348250;28;1014;-54
2024/01/17 00:32:53;;;;;;;5.45;3.35;;;16.00;66.90;;;;;;348204;28;1059;-54
2024/01/17 00:33:04;;;;;;;5.15;3.40;;;16.00;66.80;;;;;;348329;28;867;-55
2024/01/17 00:33:15;;;;;;;6.03;3.85;;;16.00;66.80;;;;;;348208;28;1550;-54
2024/01/17 00:33:26;;;;;;;6.35;3.88;;;16.00;66.80;;;;;;348134;28;1420;-54
2024/01/17 00:33:36;;;;;;;7.32;3.97;;;16.00;66.80;;;;;;348142;28;1166;-54
2024/01/17 00:33:47;;;;;;;6.63;3.87;;;16.00;66.80;;;;;;348253;28;1107;-54
2024/01/17 00:33:58;;;;;;;7.05;4.20;;;16.00;66.90;;;;;;348253;28;1169;-54
2024/01/17 00:34:09;;;;;;;6.30;4.18;;;16.00;66.90;;;;;;348227;28;991;-54
2024/01/17 00:34:19;;;;;;;6.57;4.05;;;16.00;66.90;;;;;;348153;28;1053;-56
2024/01/17 00:34:30;;;;;;;6.63;4.00;;;16.00;66.90;;;;;;348291;28;944;-55
2024/01/17 00:34:41;;;;;;;6.77;3.87;;;16.00;66.90;;;;;;348219;28;1075;-55
2024/01/17 00:34:53;;;;;;;6.93;4.20;;;15.90;66.90;;;;;;348322;28;817;-54
2024/01/17 00:35:04;;;;;;;7.43;4.28;;;16.00;66.90;;;;;;348178;28;1119;-54
2024/01/17 00:35:14;;;;;;;7.45;4.22;;;15.90;66.90;;;;;;348286;28;1198;-54
2024/01/17 00:35:25;;;;;;;7.95;4.10;;;15.90;66.90;;;;;;348208;28;1146;-54
2024/01/17 00:35:36;;;;;;;8.40;4.00;;;16.00;67.00;;;;;;348286;28;1058;-56
2024/01/17 00:35:47;;;;;;;8.03;3.93;;;15.90;67.00;;;;;;348243;28;1040;-55
2024/01/17 00:35:57;;;;;;;6.90;3.95;;;15.90;67.00;;;;;;348305;28;888;-55
2024/01/17 00:36:08;;;;;;;7.72;3.97;;;16.00;67.00;;;;;;348175;28;1859;-54
2024/01/17 00:36:19;;;;;;;7.43;3.80;;;16.00;66.90;;;;;;348262;28;1016;-56
2024/01/17 00:36:30;;;;;;;6.93;3.78;;;15.90;66.90;;;;;;348241;28;1106;-54
2024/01/17 00:36:40;;;;;;;5.27;3.60;;;16.00;66.90;;;;;;348338;28;884;-53
2024/01/17 00:36:51;;;;;;;6.10;3.53;;;15.90;66.90;;;;;;348077;28;1728;-54
2024/01/17 00:37:02;;;;;;;7.75;3.67;;;16.00;66.90;;;;;;348271;28;1031;-54
2024/01/17 00:37:13;;;;;;;8.20;3.70;;;16.00;66.90;;;;;;348131;28;1991;-54
2024/01/17 00:37:24;;;;;;;7.60;3.60;;;16.00;66.90;;;;;;348246;28;1130;-54
2024/01/17 00:37:34;;;;;;;6.22;3.30;;;16.00;66.80;;;;;;348247;28;968;-54
2024/01/17 00:37:45;;;;;;;5.57;3.25;;;16.00;66.70;;;;;;348253;28;1091;-55
2024/01/17 00:37:56;;;;;;;5.78;3.33;;;16.00;66.70;;;;;;348268;28;999;-54
2024/01/17 00:38:08;;;;;;;6.15;3.58;;;16.00;66.60;;;;;;348326;28;972;-54
2024/01/17 00:38:18;;;;;;;5.55;3.60;;;16.00;66.60;;;;;;348201;28;1141;-54
2024/01/17 00:38:31;;;;;;;5.43;3.53;;;16.00;66.60;;;;;;348248;28;975;-55
2024/01/17 00:38:41;;;;;;;5.53;3.33;;;15.90;66.60;;;;;;348285;28;1031;-54
2024/01/17 00:38:52;;;;;;;6.50;3.60;;;16.00;66.60;;;;;;348294;28;821;-55
2024/01/17 00:39:03;;;;;;;5.60;3.40;;;16.00;66.50;;;;;;348166;28;1848;-54
2024/01/17 00:39:16;;;;;;;5.55;3.40;;;16.00;66.50;;;;;;348240;28;1035;-55
2024/01/17 00:39:27;;;;;;;5.65;3.42;;;16.00;66.60;;;;;;348212;28;1811;-54
2024/01/17 00:39:38;;;;;;;7.68;3.47;;;16.00;66.60;;;;;;348281;28;963;-54
2024/01/17 00:39:49;;;;;;;7.63;3.70;;;16.00;66.70;;;;;;348189;28;932;-55
2024/01/17 00:39:59;;;;;;;7.22;3.75;;;16.00;66.60;;;;;;348293;28;1052;-55
2024/01/17 00:40:10;;;;;;;5.55;3.85;;;16.00;66.70;;;;;;348199;28;1018;-54
2024/01/17 00:40:21;;;;;;;6.07;3.80;;;16.00;66.70;;;;;;348228;28;975;-55
2024/01/17 00:40:32;;;;;;;6.45;3.70;;;16.00;66.80;;;;;;348234;28;1319;-55
2024/01/17 00:40:43;;;;;;;6.18;3.63;;;16.00;66.70;;;;;;348187;28;1087;-55
2024/01/17 00:40:54;;;;;;;6.15;3.75;;;16.00;66.80;;;;;;348074;28;1260;-54
2024/01/17 00:41:05;;;;;;;7.25;3.85;;;15.90;66.80;;;;;;348047;28;1095;-54
2024/01/17 00:41:18;;;;;;;8.18;3.95;;;15.90;66.80;;;;;;348170;28;944;-56
2024/01/17 00:41:28;;;;;;;7.90;3.85;;;15.90;66.80;;;;;;348079;28;1342;-54
2024/01/17 00:41:40;;;;;;;5.80;3.60;;;15.90;66.80;;;;;;348045;28;1358;-55
2024/01/17 00:41:51;;;;;;;6.70;3.70;;;15.90;66.80;;;;;;348215;28;1198;-54
2024/01/17 00:42:02;;;;;;;7.45;3.85;;;15.90;66.80;;;;;;348272;28;1000;-55
2024/01/17 00:42:12;;;;;;;8.37;4.00;;;15.90;66.80;;;;;;348202;28;1271;-55
2024/01/17 00:42:26;;;;;;;7.22;3.83;;;15.90;66.80;;;;;;348194;28;1078;-55
2024/01/17 00:42:37;;;;;;;5.88;3.53;;;15.90;66.80;;;;;;348031;28;1164;-54
2024/01/17 00:42:49;;;;;;;5.15;3.35;;;16.00;66.70;;;;;;348272;28;903;-53
2024/01/17 00:42:59;;;;;;;4.95;3.47;;;16.00;66.70;;;;;;348227;28;892;-54
2024/01/17 00:43:10;;;;;;;5.83;3.60;;;15.90;66.70;;;;;;348325;28;860;-55
2024/01/17 00:43:21;;;;;;;6.68;3.70;;;15.90;66.80;;;;;;348183;28;1803;-54
2024/01/17 00:43:35;;;;;;;7.78;3.95;;;15.90;66.70;;;;;;348241;28;1505;-55
2024/01/17 00:43:45;;;;;;;6.50;4.07;;;15.90;66.70;;;;;;348280;28;1027;-55
2024/01/17 00:43:56;;;;;;;6.60;3.97;;;15.90;66.80;;;;;;348180;28;1036;-54
2024/01/17 00:44:07;;;;;;;6.93;3.92;;;15.90;66.80;;;;;;348352;28;1070;-55
2024/01/17 00:44:21;;;;;;;7.72;4.05;;;15.90;66.80;;;;;;348288;28;1374;-54
2024/01/17 00:44:32;;;;;;;6.90;4.13;;;15.90;66.80;;;;;;348185;28;1027;-55
2024/01/17 00:44:43;;;;;;;6.50;3.92;;;15.90;66.90;;;;;;348295;28;1046;-54
2024/01/17 00:44:54;;;;;;;5.43;3.72;;;15.90;66.90;;;;;;348281;28;1074;-54
2024/01/17 00:45:06;;;;;;;4.60;3.30;;;15.90;66.80;;;;;;348251;28;963;-54
2024/01/17 00:45:17;;;;;;;5.38;3.63;;;15.90;66.80;;;;;;348335;28;979;-54
2024/01/17 00:45:28;;;;;;;6.97;3.73;;;15.90;66.80;;;;;;348211;28;1071;-54
2024/01/17 00:45:39;;;;;;;7.72;3.70;;;15.90;66.70;;;;;;348211;28;1011;-56
2024/01/17 00:45:50;;;;;;;5.85;3.50;;;15.90;66.70;;;;;;348304;28;998;-55
2024/01/17 00:46:01;;;;;;;5.82;3.60;;;15.90;66.70;;;;;;348211;28;1023;-55
2024/01/17 00:46:12;;;;;;;5.97;3.60;;;15.90;66.70;;;;;;348197;28;1059;-55
2024/01/17 00:46:22;;;;;;;6.37;3.63;;;15.90;66.80;;;;;;348277;28;951;-55
2024/01/17 00:46:33;;;;;;;6.32;3.60;;;15.90;66.80;;;;;;348256;28;868;-55
2024/01/17 00:46:45;;;;;;;7.75;3.67;;;15.90;66.80;;;;;;348247;28;1075;-55
2024/01/17 00:46:55;;;;;;;8.15;3.78;;;15.90;66.80;;;;;;348184;28;1073;-54
2024/01/17 00:47:06;;;;;;;7.90;3.80;;;15.90;66.80;;;;;;348285;28;972;-55
2024/01/17 00:47:17;;;;;;;7.50;3.70;;;15.90;66.80;;;;;;348257;28;996;-55
2024/01/17 00:47:28;;;;;;;6.43;3.55;;;15.90;66.80;;;;;;348158;28;1521;-56
2024/01/17 00:47:39;;;;;;;5.40;3.40;;;15.90;66.90;;;;;;348245;28;1165;-55
2024/01/17 00:47:50;;;;;;;5.20;3.53;;;15.90;66.90;;;;;;348260;28;1078;-55
2024/01/17 00:48:00;;;;;;;5.30;3.40;;;15.90;66.90;;;;;;348258;28;1292;-55
2024/01/17 00:48:13;;;;;;;6.30;3.60;;;15.90;66.90;;;;;;348214;28;930;-55
2024/01/17 00:48:24;;;;;;;7.30;3.83;;;15.90;66.90;;;;;;348252;28;1174;-54
2024/01/17 00:48:35;;;;;;;6.93;3.80;;;15.90;67.00;;;;;;348239;28;1324;-55
2024/01/17 00:48:45;;;;;;;6.90;4.03;;;15.90;67.00;;;;;;348245;28;900;-53
2024/01/17 00:48:56;;;;;;;5.63;3.93;;;15.90;66.90;;;;;;348287;28;1047;-54
2024/01/17 00:49:07;;;;;;;5.28;3.88;;;15.90;66.80;;;;;;348237;28;814;-54
2024/01/17 00:49:17;;;;;;;5.20;3.65;;;15.90;66.80;;;;;;348187;28;1626;-54
2024/01/17 00:49:28;;;;;;;5.25;3.55;;;15.90;66.80;;;;;;348191;28;1027;-54
2024/01/17 00:49:42;;;;;;;7.07;3.53;;;15.90;66.80;;;;;;348226;28;885;-54
2024/01/17 00:49:53;;;;;;;6.78;3.40;;;15.90;66.80;;;;;;348308;28;963;-54
2024/01/17 00:50:04;;;;;;;6.25;3.38;;;15.90;66.70;;;;;;348215;28;1317;-55
2024/01/17 00:50:15;;;;;;;5.28;3.53;;;15.90;66.70;;;;;;348264;28;885;-53
2024/01/17 00:50:25;;;;;;;5.65;3.70;;;15.90;66.70;;;;;;348264;28;1883;-54
2024/01/17 00:50:36;;;;;;;4.97;3.70;;;15.90;66.70;;;;;;348155;28;1501;-53
2024/01/17 00:50:47;;;;;;;6.03;3.70;;;15.90;66.70;;;;;;348278;28;1813;-55
2024/01/17 00:50:58;;;;;;;5.70;3.47;;;15.90;66.70;;;;;;348309;28;960;-55
2024/01/17 00:51:08;;;;;;;5.73;3.43;;;15.90;66.70;;;;;;348260;28;789;-54
2024/01/17 00:51:23;;;;;;;6.25;3.58;;;15.90;66.80;;;;;;348189;28;1086;-55
2024/01/17 00:51:35;;;;;;;7.25;4.07;;;15.90;66.80;;;;;;348278;28;991;-55
2024/01/17 00:51:45;;;;;;;5.88;4.03;;;15.90;66.80;;;;;;348204;28;1028;-55
2024/01/17 00:51:56;;;;;;;5.78;3.80;;;15.90;66.80;;;;;;348327;28;1003;-55
2024/01/17 00:52:08;;;;;;;5.47;3.50;;;15.90;66.80;;;;;;348185;28;1899;-54
2024/01/17 00:52:19;;;;;;;5.97;3.50;;;15.90;66.80;;;;;;348249;28;1087;-54
2024/01/17 00:52:30;;;;;;;6.70;3.80;;;15.90;66.80;;;;;;348159;28;975;-55
2024/01/17 00:52:41;;;;;;;6.22;3.90;;;15.90;66.80;;;;;;348312;28;965;-55
2024/01/17 00:52:52;;;;;;;5.82;3.78;;;15.90;66.80;;;;;;348199;28;1045;-55
2024/01/17 00:53:03;;;;;;;5.30;3.47;;;15.90;66.80;;;;;;348327;28;1063;-55
2024/01/17 00:53:13;;;;;;;5.40;3.30;;;15.90;66.80;;;;;;348184;28;1086;-54
2024/01/17 00:53:24;;;;;;;6.15;3.40;;;15.90;66.80;;;;;;348161;28;1625;-54
2024/01/17 00:53:35;;;;;;;6.40;3.77;;;15.90;66.80;;;;;;348230;28;1023;-55
2024/01/17 00:53:46;;;;;;;6.03;3.75;;;15.90;66.90;;;;;;348279;28;992;-55
2024/01/17 00:53:57;;;;;;;7.15;3.92;;;15.90;66.80;;;;;;348196;28;975;-55
2024/01/17 00:54:07;;;;;;;7.57;3.70;;;15.90;66.90;;;;;;348254;28;1074;-55
2024/01/17 00:54:18;;;;;;;6.90;3.95;;;15.90;66.90;;;;;;348207;28;935;-55
2024/01/17 00:54:29;;;;;;;5.17;3.60;;;16.00;66.90;;;;;;348229;28;1003;-54
2024/01/17 00:54:39;;;;;;;5.10;3.78;;;16.00;66.90;;;;;;348167;28;911;-54
2024/01/17 00:54:50;;;;;;;5.13;3.60;;;15.90;66.90;;;;;;348185;28;1681;-55
2024/01/17 00:55:01;;;;;;;6.28;3.85;;;15.90;66.90;;;;;;348227;28;1047;-54
2024/01/17 00:55:12;;;;;;;6.60;3.77;;;16.00;66.90;;;;;;348207;28;980;-55
2024/01/17 00:55:22;;;;;;;6.20;3.50;;;15.90;66.90;;;;;;348241;28;1051;-54
2024/01/17 00:55:33;;;;;;;6.40;3.33;;;15.90;66.90;;;;;;348198;28;931;-54
2024/01/17 00:55:44;;;;;;;5.35;3.15;;;15.90;66.90;;;;;;348292;28;979;-55
2024/01/17 00:55:55;;;;;;;5.13;3.20;;;16.00;67.00;;;;;;348158;28;983;-55
2024/01/17 00:56:06;;;;;;;3.95;3.25;;;16.00;67.00;;;;;;348249;28;1182;-54
2024/01/17 00:56:17;;;;;;;5.75;3.40;;;15.90;67.00;;;;;;348211;28;1018;-55
2024/01/17 00:56:29;;;;;;;6.47;3.65;;;16.00;67.00;;;;;;348226;28;988;-54
2024/01/17 00:56:40;;;;;;;7.03;3.75;;;15.90;67.00;;;;;;348204;28;991;-54
2024/01/17 00:56:51;;;;;;;7.28;3.65;;;16.00;67.00;;;;;;348278;28;907;-54
2024/01/17 00:57:01;;;;;;;6.73;3.40;;;15.90;67.00;;;;;;348198;28;1107;-55
2024/01/17 00:57:12;;;;;;;6.15;3.58;;;16.00;67.00;;;;;;348296;28;975;-54
2024/01/17 00:57:23;;;;;;;5.07;3.70;;;15.90;67.00;;;;;;348092;28;1977;-54
2024/01/17 00:57:33;;;;;;;5.25;3.65;;;15.90;67.10;;;;;;348310;28;918;-54
2024/01/17 00:57:44;;;;;;;5.03;3.47;;;16.00;67.00;;;;;;348137;28;1087;-55
2024/01/17 00:57:55;;;;;;;4.45;3.45;;;15.90;67.10;;;;;;348225;28;853;-55
2024/01/17 00:58:06;;;;;;;4.53;3.50;;;15.90;67.10;;;;;;348127;28;1166;-55
2024/01/17 00:58:18;;;;;;;4.45;3.50;;;16.00;67.10;;;;;;348227;28;1020;-55
2024/01/17 00:58:28;;;;;;;4.47;3.58;;;15.90;67.10;;;;;;348219;28;1007;-55
2024/01/17 00:58:39;;;;;;;4.37;3.43;;;15.90;67.00;;;;;;348240;28;1095;-56
2024/01/17 00:58:50;;;;;;;5.25;3.42;;;15.90;67.00;;;;;;348166;28;1099;-56
2024/01/17 00:59:00;;;;;;;5.53;3.38;;;15.90;67.10;;;;;;348231;28;813;-56
2024/01/17 00:59:11;;;;;;;5.80;3.60;;;15.90;67.20;;;;;;348111;28;1027;-54
2024/01/17 00:59:22;;;;;;;5.18;3.40;;;15.90;67.20;;;;;;348259;28;1039;-54